Terminal Aerodrome Forecast
Issued by NWS Albuquerque, NM

Home | Current Version | Previous Version | Text Only | Print | Product List | Glossary On
Versions: 1 2 3 4 5 6 7 8 9 10 11 12 13 14 15 16
000
FTUS45 KABQ 302338
TAFABQ
TAF
KABQ 302338Z 0100/0124 30005KT P6SM SCT070
     FM010200 20008KT P6SM VCSH BKN070
     FM010500 15005KT P6SM BKN110
     FM011000 36005KT P6SM FEW120
     FM011800 29008KT P6SM FEW080=

USA.gov is the U.S. government's official web portal to all federal, state and local government web resources and services.